Barry Square, Connecticut
Current Conditions -  °F | °C
As of 7:53 AM on Friday 19 Dec 2014 (Local Time) from KHFD Reporting Station
Overcast Overcast  
Wind Chill: 26°   Ceiling: 4400
Heat Index: 34°   Visibility: 10mi
Dew Point: 20°   Wind: 10mph
Humidity: 56%   Direction: 270°W
Pressure: 29.98"   Gusts: 23mph
Location:  41.7391°N, 72.6703°W
Report Text: KHFD 191253Z 27009G20KT 260V320 10SM OVC044 01/M07 A2998 RMK AO2 SLP152 T00111067
Loading
Personal Weather Stations






























Interactive Weather Map New forecast layout! Learn more

10-Day Weather Forecast

Advertisements
Track Severe Weather on mobile